Time,TemperatureF,DewpointF,PressureIn,WindDirection,WindDirectionDegrees,WindSpeedMPH,WindSpeedGustMPH,Humidity,HourlyPrecipIn,Conditions,Clouds,dailyrainin,SoftwareType,DateUTC
2013-09-20 00:00:00,72.3,66.5,30.02,WSW,238,0.0,1.0,82,0.00,,,0.00,VWS V14.01,2013-09-20 04:00:00,
2013-09-20 00:01:00,71.5,65.4,30.02,WSW,238,0.0,1.0,81,0.00,,,0.00,VWS V14.01,2013-09-20 04:01:00,
2013-09-20 00:06:00,71.3,65.5,30.02,WSW,238,0.0,1.0,82,0.00,,,0.00,VWS V14.01,2013-09-20 04:06:00,
2013-09-20 00:10:00,71.3,65.5,30.02,WSW,238,0.0,1.0,82,0.00,,,0.00,VWS V14.01,2013-09-20 04:10:00,
2013-09-20 00:11:00,71.1,65.3,30.02,WSW,238,0.0,1.0,82,0.00,,,0.00,VWS V14.01,2013-09-20 04:11:00,
2013-09-20 00:16:00,71.1,65.3,30.01,WSW,238,0.0,1.0,82,0.00,,,0.00,VWS V14.01,2013-09-20 04:16:00,
2013-09-20 00:20:00,70.9,65.1,30.01,WSW,238,0.0,1.0,82,0.00,,,0.00,VWS V14.01,2013-09-20 04:20:00,
2013-09-20 00:21:00,70.9,65.1,30.01,WSW,238,0.0,1.0,82,0.00,,,0.00,VWS V14.01,2013-09-20 04:21:00,
2013-09-20 00:26:00,70.9,65.5,30.01,WSW,238,0.0,1.0,83,0.00,,,0.00,VWS V14.01,2013-09-20 04:26:00,
2013-09-20 00:30:00,70.8,65.4,30.01,WSW,238,0.0,1.0,83,0.00,,,0.00,VWS V14.01,2013-09-20 04:30:00,
2013-09-20 00:31:00,70.8,65.4,30.01,WSW,238,0.0,1.0,83,0.00,,,0.00,VWS V14.01,2013-09-20 04:31:00,
2013-09-20 00:36:00,70.8,65.4,30.01,WSW,238,0.0,1.0,83,0.00,,,0.00,VWS V14.01,2013-09-20 04:36:00,
2013-09-20 00:40:00,70.6,65.2,30.01,WSW,238,0.0,1.0,83,0.00,,,0.00,VWS V14.01,2013-09-20 04:40:00,
2013-09-20 00:41:00,70.6,65.2,30.01,WSW,238,0.0,1.0,83,0.00,,,0.00,VWS V14.01,2013-09-20 04:41:00,
2013-09-20 00:46:00,70.4,65.3,30.01,WSW,238,0.0,1.0,84,0.00,,,0.00,VWS V14.01,2013-09-20 04:46:00,
2013-09-20 00:50:00,70.4,65.3,30.01,WSW,238,0.0,1.0,84,0.00,,,0.00,VWS V14.01,2013-09-20 04:50:00,
2013-09-20 00:51:00,70.3,65.2,30.01,WSW,238,0.0,1.0,84,0.00,,,0.00,VWS V14.01,2013-09-20 04:51:00,
2013-09-20 00:57:00,70.3,65.2,30.01,WSW,238,0.0,1.0,84,0.00,,,0.00,VWS V14.01,2013-09-20 04:57:00,
2013-09-20 01:00:00,70.1,65.1,30.02,WSW,238,0.0,1.0,84,0.00,,,0.00,VWS V14.01,2013-09-20 05:00:00,
2013-09-20 01:01:00,70.1,65.1,30.02,WSW,238,0.0,1.0,84,0.00,,,0.00,VWS V14.01,2013-09-20 05:01:00,
2013-09-20 01:07:00,70.1,65.4,30.02,WSW,238,0.0,1.0,85,0.00,,,0.00,VWS V14.01,2013-09-20 05:07:00,
2013-09-20 01:10:00,69.9,65.2,30.02,WSW,238,0.0,1.0,85,0.00,,,0.00,VWS V14.01,2013-09-20 05:10:00,
2013-09-20 01:12:00,69.9,65.2,30.02,WSW,238,0.0,1.0,85,0.00,,,0.00,VWS V14.01,2013-09-20 05:12:00,
2013-09-20 01:17:00,69.8,65.1,30.02,WSW,238,0.0,1.0,85,0.00,,,0.00,VWS V14.01,2013-09-20 05:17:00,
2013-09-20 01:20:00,69.6,65.2,30.02,WSW,238,0.0,1.0,86,0.00,,,0.00,VWS V14.01,2013-09-20 05:20:00,
2013-09-20 01:22:00,69.6,65.2,30.02,WSW,238,0.0,1.0,86,0.00,,,0.00,VWS V14.01,2013-09-20 05:22:00,
2013-09-20 01:27:00,69.4,65.0,30.02,WSW,238,0.0,1.0,86,0.00,,,0.00,VWS V14.01,2013-09-20 05:27:00,
2013-09-20 01:30:00,69.4,65.0,30.02,WSW,238,0.0,1.0,86,0.00,,,0.00,VWS V14.01,2013-09-20 05:30:00,
2013-09-20 01:32:00,69.4,65.0,30.02,WSW,238,0.0,1.0,86,0.00,,,0.00,VWS V14.01,2013-09-20 05:32:00,
2013-09-20 01:37:00,69.3,64.9,30.02,WSW,238,0.0,1.0,86,0.00,,,0.00,VWS V14.01,2013-09-20 05:37:00,
2013-09-20 01:40:00,69.3,65.3,30.02,WSW,238,0.0,1.0,87,0.00,,,0.00,VWS V14.01,2013-09-20 05:40:00,
2013-09-20 01:42:00,69.3,65.3,30.02,WSW,238,0.0,1.0,87,0.00,,,0.00,VWS V14.01,2013-09-20 05:42:00,
2013-09-20 01:47:00,69.1,65.1,30.02,WSW,238,0.0,1.0,87,0.00,,,0.00,VWS V14.01,2013-09-20 05:47:00,
2013-09-20 01:50:00,68.9,65.2,30.02,WSW,238,0.0,1.0,88,0.00,,,0.00,VWS V14.01,2013-09-20 05:50:00,
2013-09-20 01:52:00,68.9,65.2,30.02,WSW,238,0.0,1.0,88,0.00,,,0.00,VWS V14.01,2013-09-20 05:52:00,
2013-09-20 01:57:00,68.8,65.1,30.02,WSW,238,0.0,1.0,88,0.00,,,0.00,VWS V14.01,2013-09-20 05:57:00,
2013-09-20 02:00:00,68.8,65.1,30.02,WSW,238,0.0,1.0,88,0.00,,,0.00,VWS V14.01,2013-09-20 06:00:00,
2013-09-20 02:02:00,68.8,65.1,30.02,WSW,238,0.0,1.0,88,0.00,,,0.00,VWS V14.01,2013-09-20 06:02:00,
2013-09-20 02:07:00,68.8,64.8,30.02,WSW,238,0.0,1.0,87,0.00,,,0.00,VWS V14.01,2013-09-20 06:07:00,
2013-09-20 02:10:00,68.9,64.9,30.02,WSW,238,0.0,1.0,87,0.00,,,0.00,VWS V14.01,2013-09-20 06:10:00,
2013-09-20 02:12:00,68.9,64.9,30.02,WSW,238,0.0,1.0,87,0.00,,,0.00,VWS V14.01,2013-09-20 06:12:00,
2013-09-20 02:17:00,69.1,64.7,30.01,WSW,238,0.0,1.0,86,0.00,,,0.00,VWS V14.01,2013-09-20 06:17:00,
2013-09-20 02:20:00,69.1,64.7,30.01,WSW,238,0.0,1.0,86,0.00,,,0.00,VWS V14.01,2013-09-20 06:20:00,
2013-09-20 02:22:00,69.1,65.1,30.01,WSW,238,0.0,1.0,87,0.00,,,0.00,VWS V14.01,2013-09-20 06:22:00,
2013-09-20 02:32:00,68.8,64.8,30.01,WSW,238,0.0,1.0,87,0.00,,,0.00,VWS V14.01,2013-09-20 06:32:00,
2013-09-20 02:42:00,68.6,64.9,30.01,WSW,238,0.0,1.0,88,0.00,,,0.00,VWS V14.01,2013-09-20 06:42:00,
2013-09-20 02:47:00,68.4,64.7,30.01,WSW,238,0.0,1.0,88,0.00,,,0.00,VWS V14.01,2013-09-20 06:47:00,
2013-09-20 02:52:00,68.3,64.6,30.01,WSW,238,0.0,1.0,88,0.00,,,0.00,VWS V14.01,2013-09-20 06:52:00,
2013-09-20 02:57:00,68.1,64.4,30.01,WSW,238,0.0,1.0,88,0.00,,,0.00,VWS V14.01,2013-09-20 06:57:00,
2013-09-20 03:00:00,68.1,64.7,30.00,WSW,238,0.0,1.0,89,0.00,,,0.00,VWS V14.01,2013-09-20 07:00:00,
2013-09-20 03:07:00,67.9,64.5,30.00,WSW,238,0.0,1.0,89,0.00,,,0.00,VWS V14.01,2013-09-20 07:07:00,
2013-09-20 03:10:00,67.9,64.5,30.00,WSW,238,0.0,1.0,89,0.00,,,0.00,VWS V14.01,2013-09-20 07:10:00,
2013-09-20 03:12:00,67.9,64.5,30.00,WSW,238,0.0,1.0,89,0.00,,,0.00,VWS V14.01,2013-09-20 07:12:00,
2013-09-20 03:17:00,67.9,64.5,30.00,WSW,238,0.0,1.0,89,0.00,,,0.00,VWS V14.01,2013-09-20 07:17:00,
2013-09-20 03:27:00,67.9,64.5,30.00,WSW,238,0.0,1.0,89,0.00,,,0.00,VWS V14.01,2013-09-20 07:27:00,
2013-09-20 03:32:00,68.9,64.9,30.01,WSW,238,0.0,1.0,87,0.00,,,0.00,VWS V14.01,2013-09-20 07:32:00,
2013-09-20 03:40:00,68.3,64.3,30.00,WSW,238,0.0,1.0,87,0.00,,,0.00,VWS V14.01,2013-09-20 07:40:00,
2013-09-20 03:42:00,68.8,64.8,30.01,WSW,238,0.0,1.0,87,0.00,,,0.00,VWS V14.01,2013-09-20 07:42:00,
2013-09-20 03:47:00,68.4,64.4,30.00,WSW,238,0.0,1.0,87,0.00,,,0.00,VWS V14.01,2013-09-20 07:47:00,
2013-09-20 03:50:00,68.4,64.1,30.00,WSW,238,0.0,1.0,86,0.00,,,0.00,VWS V14.01,2013-09-20 07:50:00,
2013-09-20 03:55:00,68.4,64.7,30.01,WSW,238,0.0,1.0,88,0.00,,,0.00,VWS V14.01,2013-09-20 07:55:00,
2013-09-20 04:00:00,68.4,64.1,30.00,WSW,238,0.0,1.0,86,0.00,,,0.00,VWS V14.01,2013-09-20 08:00:00,
2013-09-20 04:02:00,68.4,64.1,30.00,WSW,238,0.0,1.0,86,0.00,,,0.00,VWS V14.01,2013-09-20 08:02:00,
2013-09-20 04:07:00,68.1,64.7,30.00,WSW,238,0.0,1.0,89,0.00,,,0.00,VWS V14.01,2013-09-20 08:07:00,
2013-09-20 04:12:00,68.3,64.0,30.00,WSW,238,0.0,1.0,86,0.00,,,0.00,VWS V14.01,2013-09-20 08:12:00,
2013-09-20 04:20:00,68.3,64.0,29.99,WSW,238,0.0,1.0,86,0.00,,,0.00,VWS V14.01,2013-09-20 08:20:00,
2013-09-20 04:22:00,68.1,64.1,29.99,WSW,238,0.0,1.0,87,0.00,,,0.00,VWS V14.01,2013-09-20 08:22:00,
2013-09-20 04:25:00,67.9,64.5,30.00,WSW,238,0.0,1.0,89,0.00,,,0.00,VWS V14.01,2013-09-20 08:25:00,
2013-09-20 04:35:00,67.9,64.5,30.00,WSW,238,1.0,1.0,89,0.00,,,0.00,VWS V14.01,2013-09-20 08:35:00,
2013-09-20 04:37:00,67.9,63.9,29.99,WSW,238,0.0,1.0,87,0.00,,,0.00,VWS V14.01,2013-09-20 08:37:00,
2013-09-20 04:40:00,67.8,63.8,29.99,WSW,238,0.0,1.0,87,0.00,,,0.00,VWS V14.01,2013-09-20 08:40:00,
2013-09-20 04:42:00,68.1,64.4,30.00,WSW,238,0.0,1.0,88,0.00,,,0.00,VWS V14.01,2013-09-20 08:42:00,
2013-09-20 04:47:00,68.3,64.3,30.00,WSW,238,0.0,1.0,87,0.00,,,0.00,VWS V14.01,2013-09-20 08:47:00,
2013-09-20 04:50:00,67.8,63.8,29.99,WSW,238,0.0,1.0,87,0.00,,,0.00,VWS V14.01,2013-09-20 08:50:00,
2013-09-20 04:52:00,67.6,63.9,29.99,WSW,238,0.0,1.0,88,0.00,,,0.00,VWS V14.01,2013-09-20 08:52:00,
2013-09-20 04:57:00,68.4,64.1,30.00,WSW,238,0.0,1.0,86,0.00,,,0.00,VWS V14.01,2013-09-20 08:57:00,
2013-09-20 05:02:00,68.4,64.1,30.00,WSW,238,0.0,1.0,86,0.00,,,0.00,VWS V14.01,2013-09-20 09:02:00,
2013-09-20 05:07:00,67.4,63.7,29.99,WSW,238,0.0,1.0,88,0.00,,,0.00,VWS V14.01,2013-09-20 09:07:00,
2013-09-20 05:10:00,67.3,63.6,29.99,WSW,238,0.0,1.0,88,0.00,,,0.00,VWS V14.01,2013-09-20 09:10:00,
2013-09-20 05:12:00,68.3,64.0,30.00,WSW,238,0.0,1.0,86,0.00,,,0.00,VWS V14.01,2013-09-20 09:12:00,
2013-09-20 05:22:00,68.3,64.0,29.99,WSW,238,0.0,1.0,86,0.00,,,0.00,VWS V14.01,2013-09-20 09:22:00,
2013-09-20 05:32:00,68.1,64.1,29.99,WSW,238,0.0,1.0,87,0.00,,,0.00,VWS V14.01,2013-09-20 09:32:00,
2013-09-20 05:37:00,67.9,63.9,29.99,WSW,238,0.0,1.0,87,0.00,,,0.00,VWS V14.01,2013-09-20 09:37:00,
2013-09-20 05:42:00,66.6,63.6,30.00,WSW,238,0.0,1.0,90,0.00,,,0.00,VWS V14.01,2013-09-20 09:42:00,
2013-09-20 05:50:00,66.4,63.4,30.00,WSW,238,0.0,1.0,90,0.00,,,0.00,VWS V14.01,2013-09-20 09:50:00,
2013-09-20 05:52:00,67.8,63.8,29.99,WSW,238,0.0,1.0,87,0.00,,,0.00,VWS V14.01,2013-09-20 09:52:00,
2013-09-20 06:02:00,67.6,63.9,29.99,WSW,238,0.0,1.0,88,0.00,,,0.00,VWS V14.01,2013-09-20 10:02:00,
2013-09-20 06:20:00,65.8,63.1,30.00,WSW,238,0.0,1.0,91,0.00,,,0.00,VWS V14.01,2013-09-20 10:20:00,
2013-09-20 06:22:00,67.1,63.8,29.99,WSW,238,0.0,1.0,89,0.00,,,0.00,VWS V14.01,2013-09-20 10:22:00,
2013-09-20 06:27:00,66.9,63.6,29.99,WSW,238,0.0,1.0,89,0.00,,,0.00,VWS V14.01,2013-09-20 10:27:00,
2013-09-20 06:32:00,66.9,63.6,29.99,WSW,238,0.0,1.0,89,0.00,,,0.00,VWS V14.01,2013-09-20 10:32:00,
2013-09-20 06:37:00,66.8,63.5,30.00,WSW,238,0.0,1.0,89,0.00,,,0.00,VWS V14.01,2013-09-20 10:37:00,
2013-09-20 06:45:00,66.6,63.6,30.00,WSW,238,0.0,1.0,90,0.00,,,0.00,VWS V14.01,2013-09-20 10:45:00,
2013-09-20 06:52:00,66.6,63.6,30.00,WSW,238,0.0,1.0,90,0.00,,,0.00,VWS V14.01,2013-09-20 10:52:00,
2013-09-20 07:02:00,66.3,63.3,30.00,WSW,238,0.0,1.0,90,0.00,,,0.00,VWS V14.01,2013-09-20 11:02:00,
2013-09-20 07:07:00,66.1,63.7,30.00,WSW,238,0.0,1.0,92,0.00,,,0.00,VWS V14.01,2013-09-20 11:07:00,
2013-09-20 07:12:00,66.1,63.4,30.00,WSW,238,0.0,1.0,91,0.00,,,0.00,VWS V14.01,2013-09-20 11:12:00,
2013-09-20 07:17:00,66.0,63.3,30.00,WSW,238,0.0,1.0,91,0.00,,,0.00,VWS V14.01,2013-09-20 11:17:00,
2013-09-20 07:20:00,66.6,63.9,30.00,WSW,238,0.0,1.0,91,0.00,,,0.00,VWS V14.01,2013-09-20 11:20:00,
2013-09-20 07:22:00,65.8,63.1,30.00,WSW,238,0.0,1.0,91,0.00,,,0.00,VWS V14.01,2013-09-20 11:22:00,
2013-09-20 07:27:00,65.6,62.9,30.00,WSW,238,0.0,1.0,91,0.00,,,0.00,VWS V14.01,2013-09-20 11:27:00,
2013-09-20 07:32:00,65.6,62.9,30.00,WSW,238,0.0,1.0,91,0.00,,,0.00,VWS V14.01,2013-09-20 11:32:00,
2013-09-20 07:42:00,65.5,63.1,30.00,WSW,238,0.0,1.0,92,0.00,,,0.00,VWS V14.01,2013-09-20 11:42:00,
2013-09-20 07:47:00,65.5,63.1,30.00,WSW,238,0.0,1.0,92,0.00,,,0.00,VWS V14.01,2013-09-20 11:47:00,
2013-09-20 07:52:00,65.6,63.2,30.00,WSW,238,0.0,1.0,92,0.00,,,0.00,VWS V14.01,2013-09-20 11:52:00,
2013-09-20 07:58:00,65.8,63.4,30.00,WSW,238,0.0,1.0,92,0.00,,,0.00,VWS V14.01,2013-09-20 11:58:00,
2013-09-20 08:03:00,65.8,63.4,30.00,WSW,238,0.0,1.0,92,0.00,,,0.00,VWS V14.01,2013-09-20 12:03:00,
2013-09-20 08:08:00,66.0,63.6,30.00,WSW,238,0.0,1.0,92,0.00,,,0.00,VWS V14.01,2013-09-20 12:08:00,
2013-09-20 08:15:00,66.3,63.9,30.00,WSW,238,0.0,1.0,92,0.00,,,0.00,VWS V14.01,2013-09-20 12:15:00,
2013-09-20 08:23:00,66.6,64.2,30.00,WSW,238,0.0,1.0,92,0.00,,,0.00,VWS V14.01,2013-09-20 12:23:00,
2013-09-20 08:28:00,66.8,64.1,30.00,WSW,238,0.0,1.0,91,0.00,,,0.00,VWS V14.01,2013-09-20 12:28:00,
2013-09-20 08:33:00,67.1,64.4,30.00,WSW,238,0.0,1.0,91,0.00,,,0.00,VWS V14.01,2013-09-20 12:33:00,
2013-09-20 08:38:00,67.4,64.4,30.00,WSW,238,0.0,1.0,90,0.00,,,0.00,VWS V14.01,2013-09-20 12:38:00,
2013-09-20 08:43:00,67.8,64.4,30.00,WSW,238,0.0,1.0,89,0.00,,,0.00,VWS V14.01,2013-09-20 12:43:00,
2013-09-20 08:48:00,68.1,64.4,30.00,WSW,238,0.0,1.0,88,0.00,,,0.00,VWS V14.01,2013-09-20 12:48:00,
2013-09-20 08:53:00,68.4,64.4,30.00,WSW,238,0.0,1.0,87,0.00,,,0.00,VWS V14.01,2013-09-20 12:53:00,
2013-09-20 08:58:00,68.8,64.4,30.00,WSW,238,0.0,1.0,86,0.00,,,0.00,VWS V14.01,2013-09-20 12:58:00,
2013-09-20 09:03:00,68.9,64.2,30.00,WSW,238,1.0,1.0,85,0.00,,,0.00,VWS V14.01,2013-09-20 13:03:00,
2013-09-20 09:08:00,69.3,64.3,30.00,WSW,238,0.0,1.0,84,0.00,,,0.00,VWS V14.01,2013-09-20 13:08:00,
2013-09-20 09:13:00,69.6,64.2,30.00,WSW,238,0.0,1.0,83,0.00,,,0.00,VWS V14.01,2013-09-20 13:13:00,
2013-09-20 09:18:00,69.8,64.1,30.00,WSW,238,0.0,1.0,82,0.00,,,0.00,VWS V14.01,2013-09-20 13:18:00,
2013-09-20 09:23:00,70.1,64.4,30.00,WSW,238,0.0,1.0,82,0.00,,,0.00,VWS V14.01,2013-09-20 13:23:00,
2013-09-20 09:28:00,70.6,64.5,30.00,WSW,238,0.0,1.0,81,0.00,,,0.00,VWS V14.01,2013-09-20 13:28:00,
2013-09-20 09:33:00,71.1,64.3,30.00,SW,220,0.0,1.0,79,0.00,,,0.00,VWS V14.01,2013-09-20 13:33:00,
2013-09-20 09:38:00,71.6,64.0,30.00,SW,221,0.0,1.0,77,0.00,,,0.00,VWS V14.01,2013-09-20 13:38:00,
2013-09-20 09:43:00,72.0,64.4,30.00,SW,217,0.0,1.0,77,0.00,,,0.00,VWS V14.01,2013-09-20 13:43:00,
2013-09-20 09:48:00,72.3,63.9,30.00,SW,230,0.0,1.0,75,0.00,,,0.00,VWS V14.01,2013-09-20 13:48:00,
2013-09-20 09:53:00,72.8,64.0,30.00,SW,218,0.0,1.0,74,0.00,,,0.00,VWS V14.01,2013-09-20 13:53:00,
2013-09-20 09:58:00,72.8,64.0,30.00,SSW,212,0.0,1.0,74,0.00,,,0.00,VWS V14.01,2013-09-20 13:58:00,
2013-09-20 10:03:00,73.0,64.2,30.00,South,183,0.0,1.0,74,0.00,,,0.00,VWS V14.01,2013-09-20 14:03:00,
2013-09-20 10:08:00,73.2,64.8,30.00,SSW,202,0.0,1.0,75,0.00,,,0.00,VWS V14.01,2013-09-20 14:08:00,
2013-09-20 10:13:00,73.5,64.7,30.00,SSW,202,0.0,1.0,74,0.00,,,0.00,VWS V14.01,2013-09-20 14:13:00,
2013-09-20 10:18:00,73.9,64.3,30.00,SW,215,0.0,1.0,72,0.00,,,0.00,VWS V14.01,2013-09-20 14:18:00,
2013-09-20 10:23:00,74.4,64.4,30.00,SSW,213,1.0,1.0,71,0.00,,,0.00,VWS V14.01,2013-09-20 14:23:00,
2013-09-20 10:28:00,74.7,64.3,30.00,SW,214,1.0,1.0,70,0.00,,,0.00,VWS V14.01,2013-09-20 14:28:00,
2013-09-20 10:33:00,75.3,64.8,30.00,SW,217,0.0,1.0,70,0.00,,,0.00,VWS V14.01,2013-09-20 14:33:00,
2013-09-20 10:38:00,75.8,64.5,30.00,SW,227,0.0,1.0,68,0.00,,,0.00,VWS V14.01,2013-09-20 14:38:00,
2013-09-20 10:43:00,76.1,64.8,30.00,SW,227,0.0,1.0,68,0.00,,,0.00,VWS V14.01,2013-09-20 14:43:00,
2013-09-20 10:48:00,76.7,64.9,30.00,SW,221,0.0,1.0,67,0.00,,,0.00,VWS V14.01,2013-09-20 14:48:00,
2013-09-20 10:53:00,77.2,65.0,30.00,SW,221,0.0,1.0,66,0.00,,,0.00,VWS V14.01,2013-09-20 14:53:00,
2013-09-20 10:58:00,77.7,64.6,30.00,SW,222,0.0,1.0,64,0.00,,,0.00,VWS V14.01,2013-09-20 14:58:00,
2013-09-20 11:03:00,78.1,64.5,30.00,SW,219,0.0,1.0,63,0.00,,,0.00,VWS V14.01,2013-09-20 15:03:00,
2013-09-20 11:08:00,78.3,64.2,29.99,SW,221,1.0,1.0,62,0.00,,,0.00,VWS V14.01,2013-09-20 15:08:00,
2013-09-20 11:13:00,78.5,64.4,29.99,SW,221,0.0,1.0,62,0.00,,,0.00,VWS V14.01,2013-09-20 15:13:00,
2013-09-20 11:18:00,78.6,64.5,29.99,South,190,0.0,1.0,62,0.00,,,0.00,VWS V14.01,2013-09-20 15:18:00,
2013-09-20 11:23:00,78.6,64.0,29.99,SW,221,1.0,1.0,61,0.00,,,0.00,VWS V14.01,2013-09-20 15:23:00,
2013-09-20 11:28:00,78.8,63.8,29.99,SW,219,0.0,1.0,60,0.00,,,0.00,VWS V14.01,2013-09-20 15:28:00,
2013-09-20 11:33:00,79.0,64.4,29.99,SSW,205,0.0,1.0,61,0.00,,,0.00,VWS V14.01,2013-09-20 15:33:00,
2013-09-20 11:38:00,79.4,63.8,29.98,SW,230,0.0,1.0,59,0.00,,,0.00,VWS V14.01,2013-09-20 15:38:00,
2013-09-20 11:43:00,79.8,64.2,29.98,SSW,205,0.0,1.0,59,0.00,,,0.00,VWS V14.01,2013-09-20 15:43:00,
2013-09-20 11:48:00,80.1,65.0,29.98,SSW,209,0.0,1.0,60,0.00,,,0.00,VWS V14.01,2013-09-20 15:48:00,
2013-09-20 11:53:00,80.7,64.1,29.98,SSW,208,1.0,1.0,57,0.00,,,0.00,VWS V14.01,2013-09-20 15:53:00,
2013-09-20 11:58:00,80.9,64.2,29.98,SW,235,0.0,1.0,57,0.00,,,0.00,VWS V14.01,2013-09-20 15:58:00,
2013-09-20 12:03:00,81.2,64.0,29.98,SW,224,0.0,1.0,56,0.00,,,0.00,VWS V14.01,2013-09-20 16:03:00,
2013-09-20 12:08:00,81.6,64.4,29.97,SW,221,0.0,1.0,56,0.00,,,0.00,VWS V14.01,2013-09-20 16:08:00,
2013-09-20 12:13:00,82.0,64.8,29.97,WSW,242,0.0,1.0,56,0.00,,,0.00,VWS V14.01,2013-09-20 16:13:00,
2013-09-20 12:18:00,82.4,64.1,29.97,SSW,192,2.0,2.0,54,0.00,,,0.00,VWS V14.01,2013-09-20 16:18:00,
2013-09-20 12:23:00,82.6,64.8,29.96,SSW,209,0.0,1.0,55,0.00,,,0.00,VWS V14.01,2013-09-20 16:23:00,
2013-09-20 12:28:00,82.6,64.8,29.96,SW,224,1.0,1.0,55,0.00,,,0.00,VWS V14.01,2013-09-20 16:28:00,
2013-09-20 12:33:00,82.8,65.0,29.96,WSW,243,0.0,1.0,55,0.00,,,0.00,VWS V14.01,2013-09-20 16:33:00,
2013-09-20 12:38:00,83.0,64.7,29.95,SW,232,0.0,1.0,54,0.00,,,0.00,VWS V14.01,2013-09-20 16:38:00,
2013-09-20 12:43:00,83.2,64.3,29.95,SW,221,1.0,1.0,53,0.00,,,0.00,VWS V14.01,2013-09-20 16:43:00,
2013-09-20 12:48:00,83.2,64.3,29.95,SSW,204,0.0,1.0,53,0.00,,,0.00,VWS V14.01,2013-09-20 16:48:00,
2013-09-20 12:53:00,83.2,64.3,29.95,SSW,210,1.0,1.0,53,0.00,,,0.00,VWS V14.01,2013-09-20 16:53:00,
2013-09-20 12:58:00,83.0,64.1,29.95,SW,215,3.0,3.0,53,0.00,,,0.00,VWS V14.01,2013-09-20 16:58:00,
2013-09-20 13:03:00,83.0,64.1,29.95,SW,225,1.0,1.0,53,0.00,,,0.00,VWS V14.01,2013-09-20 17:03:00,
2013-09-20 13:08:00,82.8,63.9,29.95,SW,218,4.0,4.0,53,0.00,,,0.00,VWS V14.01,2013-09-20 17:08:00,
2013-09-20 13:13:00,82.2,63.9,29.95,SW,219,0.0,1.0,54,0.00,,,0.00,VWS V14.01,2013-09-20 17:13:00,
2013-09-20 13:18:00,81.8,63.5,29.95,SW,222,0.0,1.0,54,0.00,,,0.00,VWS V14.01,2013-09-20 17:18:00,
2013-09-20 13:23:00,81.8,63.5,29.95,SW,229,1.0,1.0,54,0.00,,,0.00,VWS V14.01,2013-09-20 17:23:00,
2013-09-20 13:28:00,82.4,64.6,29.95,SW,219,0.0,1.0,55,0.00,,,0.00,VWS V14.01,2013-09-20 17:28:00,
2013-09-20 13:33:00,82.8,63.4,29.95,SW,220,2.0,2.0,52,0.00,,,0.00,VWS V14.01,2013-09-20 17:33:00,
2013-09-20 13:38:00,82.6,64.3,29.94,SW,226,0.0,1.0,54,0.00,,,0.00,VWS V14.01,2013-09-20 17:38:00,
2013-09-20 13:43:00,82.4,64.1,29.94,SW,230,0.0,1.0,54,0.00,,,0.00,VWS V14.01,2013-09-20 17:43:00,
2013-09-20 13:48:00,81.8,63.5,29.94,SW,227,0.0,1.0,54,0.00,,,0.00,VWS V14.01,2013-09-20 17:48:00,
2013-09-20 13:53:00,81.6,64.4,29.93,SW,223,0.0,1.0,56,0.00,,,0.00,VWS V14.01,2013-09-20 17:53:00,
2013-09-20 13:58:00,81.8,63.5,29.93,SSW,213,0.0,1.0,54,0.00,,,0.00,VWS V14.01,2013-09-20 17:58:00,
2013-09-20 14:03:00,82.0,64.3,29.93,SW,224,0.0,1.0,55,0.00,,,0.00,VWS V14.01,2013-09-20 18:03:00,
2013-09-20 14:08:00,82.2,64.4,29.93,SW,224,0.0,1.0,55,0.00,,,0.00,VWS V14.01,2013-09-20 18:08:00,
2013-09-20 14:13:00,82.0,64.3,29.93,SW,226,0.0,1.0,55,0.00,,,0.00,VWS V14.01,2013-09-20 18:13:00,
2013-09-20 14:18:00,82.0,64.3,29.93,SW,223,0.0,1.0,55,0.00,,,0.00,VWS V14.01,2013-09-20 18:18:00,
2013-09-20 14:23:00,81.8,64.6,29.92,SW,217,0.0,1.0,56,0.00,,,0.00,VWS V14.01,2013-09-20 18:23:00,
2013-09-20 14:28:00,81.6,64.4,29.92,SW,224,0.0,1.0,56,0.00,,,0.00,VWS V14.01,2013-09-20 18:28:00,
2013-09-20 14:33:00,81.8,64.6,29.92,SSW,198,0.0,1.0,56,0.00,,,0.00,VWS V14.01,2013-09-20 18:33:00,
2013-09-20 14:38:00,82.2,63.9,29.91,SW,223,3.0,3.0,54,0.00,,,0.00,VWS V14.01,2013-09-20 18:38:00,
2013-09-20 14:43:00,82.4,64.1,29.91,SW,217,2.0,2.0,54,0.00,,,0.00,VWS V14.01,2013-09-20 18:43:00,
2013-09-20 14:54:00,82.4,64.1,29.90,SSW,212,0.0,1.0,54,0.00,,,0.00,VWS V14.01,2013-09-20 18:54:00,
2013-09-20 14:59:00,82.0,63.7,29.90,SSW,213,0.0,1.0,54,0.00,,,0.00,VWS V14.01,2013-09-20 18:59:00,
2013-09-20 15:04:00,81.8,64.1,29.90,SW,216,0.0,1.0,55,0.00,,,0.00,VWS V14.01,2013-09-20 19:04:00,
2013-09-20 15:09:00,82.2,63.4,29.90,SW,227,6.0,6.0,53,0.00,,,0.00,VWS V14.01,2013-09-20 19:09:00,
2013-09-20 15:14:00,82.4,63.6,29.90,SSW,213,2.0,2.0,53,0.00,,,0.00,VWS V14.01,2013-09-20 19:14:00,
2013-09-20 15:19:00,82.4,64.1,29.90,SW,215,6.0,6.0,54,0.00,,,0.00,VWS V14.01,2013-09-20 19:19:00,
2013-09-20 15:24:00,82.4,64.1,29.90,SW,218,0.0,1.0,54,0.00,,,0.00,VWS V14.01,2013-09-20 19:24:00,
2013-09-20 15:29:00,82.6,64.3,29.90,SW,219,0.0,1.0,54,0.00,,,0.00,VWS V14.01,2013-09-20 19:29:00,
2013-09-20 15:34:00,82.6,64.8,29.90,SE,124,0.0,1.0,55,0.00,,,0.00,VWS V14.01,2013-09-20 19:34:00,
2013-09-20 15:39:00,82.8,64.5,29.88,SW,214,1.0,1.0,54,0.00,,,0.00,VWS V14.01,2013-09-20 19:39:00,
2013-09-20 15:44:00,82.6,63.8,29.88,SSW,211,1.0,1.0,53,0.00,,,0.00,VWS V14.01,2013-09-20 19:44:00,
2013-09-20 15:49:00,82.6,63.8,29.88,SSW,199,0.0,1.0,53,0.00,,,0.00,VWS V14.01,2013-09-20 19:49:00,
2013-09-20 15:54:00,82.6,64.8,29.88,SW,226,2.0,2.0,55,0.00,,,0.00,VWS V14.01,2013-09-20 19:54:00,
2013-09-20 15:59:00,82.6,62.7,29.88,SSE,162,2.0,2.0,51,0.00,,,0.00,VWS V14.01,2013-09-20 19:59:00,
2013-09-20 16:04:00,82.4,63.0,29.87,South,190,0.0,1.0,52,0.00,,,0.00,VWS V14.01,2013-09-20 20:04:00,
2013-09-20 16:09:00,82.2,63.4,29.87,SW,215,0.0,1.0,53,0.00,,,0.00,VWS V14.01,2013-09-20 20:09:00,
2013-09-20 16:14:00,82.2,63.9,29.87,SW,215,0.0,1.0,54,0.00,,,0.00,VWS V14.01,2013-09-20 20:14:00,
2013-09-20 16:19:00,82.6,64.8,29.86,SSW,208,0.0,1.0,55,0.00,,,0.00,VWS V14.01,2013-09-20 20:19:00,
2013-09-20 16:24:00,83.0,64.1,29.86,South,171,3.0,3.0,53,0.00,,,0.00,VWS V14.01,2013-09-20 20:24:00,
2013-09-20 16:29:00,83.0,64.1,29.86,South,172,1.0,1.0,53,0.00,,,0.00,VWS V14.01,2013-09-20 20:29:00,
2013-09-20 16:34:00,82.6,64.3,29.86,South,187,0.0,1.0,54,0.00,,,0.00,VWS V14.01,2013-09-20 20:34:00,
2013-09-20 16:39:00,82.2,63.9,29.86,SSW,207,0.0,1.0,54,0.00,,,0.00,VWS V14.01,2013-09-20 20:39:00,
2013-09-20 16:44:00,82.0,63.7,29.86,SW,215,0.0,1.0,54,0.00,,,0.00,VWS V14.01,2013-09-20 20:44:00,
2013-09-20 16:49:00,82.0,64.3,29.85,SSW,210,0.0,1.0,55,0.00,,,0.00,VWS V14.01,2013-09-20 20:49:00,
2013-09-20 16:54:00,82.2,64.4,29.85,SW,217,0.0,1.0,55,0.00,,,0.00,VWS V14.01,2013-09-20 20:54:00,
2013-09-20 16:59:00,82.0,63.7,29.85,South,171,0.0,1.0,54,0.00,,,0.00,VWS V14.01,2013-09-20 20:59:00,
2013-09-20 17:04:00,82.0,64.3,29.85,SW,214,2.0,2.0,55,0.00,,,0.00,VWS V14.01,2013-09-20 21:04:00,
2013-09-20 17:09:00,81.6,63.9,29.85,SW,225,0.0,1.0,55,0.00,,,0.00,VWS V14.01,2013-09-20 21:09:00,
2013-09-20 17:14:00,81.2,64.0,29.85,SSW,204,0.0,1.0,56,0.00,,,0.00,VWS V14.01,2013-09-20 21:14:00,
2013-09-20 17:19:00,81.1,63.9,29.85,SSW,200,1.0,1.0,56,0.00,,,0.00,VWS V14.01,2013-09-20 21:19:00,
2013-09-20 17:24:00,80.9,63.8,29.85,SSW,213,0.0,1.0,56,0.00,,,0.00,VWS V14.01,2013-09-20 21:24:00,
2013-09-20 17:29:00,80.7,63.6,29.85,SW,216,0.0,1.0,56,0.00,,,0.00,VWS V14.01,2013-09-20 21:29:00,
2013-09-20 17:34:00,80.7,63.6,29.85,SW,216,0.0,1.0,56,0.00,,,0.00,VWS V14.01,2013-09-20 21:34:00,
2013-09-20 17:39:00,80.5,63.9,29.85,SW,225,0.0,1.0,57,0.00,,,0.00,VWS V14.01,2013-09-20 21:39:00,
2013-09-20 17:44:00,80.3,63.7,29.85,SW,224,0.0,1.0,57,0.00,,,0.00,VWS V14.01,2013-09-20 21:44:00,
2013-09-20 17:49:00,80.3,63.2,29.85,SW,224,0.0,1.0,56,0.00,,,0.00,VWS V14.01,2013-09-20 21:49:00,
2013-09-20 17:54:00,80.5,63.9,29.85,SW,223,0.0,1.0,57,0.00,,,0.00,VWS V14.01,2013-09-20 21:54:00,
2013-09-20 17:59:00,80.7,64.1,29.85,SW,223,0.0,1.0,57,0.00,,,0.00,VWS V14.01,2013-09-20 21:59:00,
2013-09-20 18:04:00,80.5,63.9,29.85,SW,222,0.0,1.0,57,0.00,,,0.00,VWS V14.01,2013-09-20 22:04:00,
2013-09-20 18:09:00,80.3,64.7,29.85,SW,222,0.0,1.0,59,0.00,,,0.00,VWS V14.01,2013-09-20 22:09:00,
2013-09-20 18:14:00,79.9,64.8,29.85,SW,222,0.0,1.0,60,0.00,,,0.00,VWS V14.01,2013-09-20 22:14:00,
2013-09-20 18:19:00,79.8,63.7,29.84,South,190,0.0,1.0,58,0.00,,,0.00,VWS V14.01,2013-09-20 22:19:00,
2013-09-20 18:24:00,79.8,64.2,29.84,South,178,0.0,1.0,59,0.00,,,0.00,VWS V14.01,2013-09-20 22:24:00,
2013-09-20 18:29:00,79.6,63.5,29.84,SSW,197,0.0,1.0,58,0.00,,,0.00,VWS V14.01,2013-09-20 22:29:00,
2013-09-20 18:34:00,79.6,63.5,29.84,SSW,197,0.0,1.0,58,0.00,,,0.00,VWS V14.01,2013-09-20 22:34:00,
2013-09-20 18:39:00,79.4,63.8,29.84,SSW,197,0.0,1.0,59,0.00,,,0.00,VWS V14.01,2013-09-20 22:39:00,
2013-09-20 18:44:00,79.2,64.1,29.84,SSW,197,0.0,1.0,60,0.00,,,0.00,VWS V14.01,2013-09-20 22:44:00,
2013-09-20 18:49:00,79.0,64.4,29.84,SSW,197,0.0,1.0,61,0.00,,,0.00,VWS V14.01,2013-09-20 22:49:00,
2013-09-20 18:54:00,78.8,64.2,29.84,SSW,197,0.0,1.0,61,0.00,,,0.00,VWS V14.01,2013-09-20 22:54:00,
2013-09-20 18:59:00,78.6,64.0,29.84,SSW,197,0.0,1.0,61,0.00,,,0.00,VWS V14.01,2013-09-20 22:59:00,
2013-09-20 19:04:00,78.6,64.0,29.84,SSW,197,0.0,1.0,61,0.00,,,0.00,VWS V14.01,2013-09-20 23:04:00,
2013-09-20 19:09:00,78.5,64.4,29.84,SSW,197,1.0,1.0,62,0.00,,,0.00,VWS V14.01,2013-09-20 23:09:00,
2013-09-20 19:14:00,78.3,64.2,29.84,SSW,197,0.0,1.0,62,0.00,,,0.00,VWS V14.01,2013-09-20 23:14:00,
2013-09-20 19:19:00,78.1,64.0,29.84,SSW,197,0.0,1.0,62,0.00,,,0.00,VWS V14.01,2013-09-20 23:19:00,
2013-09-20 19:24:00,77.9,63.8,29.84,SSW,197,0.0,1.0,62,0.00,,,0.00,VWS V14.01,2013-09-20 23:24:00,
2013-09-20 19:29:00,77.9,63.8,29.84,SSW,197,0.0,1.0,62,0.00,,,0.00,VWS V14.01,2013-09-20 23:29:00,
2013-09-20 19:34:00,77.7,63.7,29.84,SSW,197,0.0,1.0,62,0.00,,,0.00,VWS V14.01,2013-09-20 23:34:00,
2013-09-20 19:39:00,77.7,63.7,29.84,SSW,197,0.0,1.0,62,0.00,,,0.00,VWS V14.01,2013-09-20 23:39:00,
2013-09-20 19:44:00,77.6,63.6,29.84,SSW,197,0.0,1.0,62,0.00,,,0.00,VWS V14.01,2013-09-20 23:44:00,
2013-09-20 19:49:00,77.4,63.4,29.84,SSW,197,0.0,1.0,62,0.00,,,0.00,VWS V14.01,2013-09-20 23:49:00,
2013-09-20 19:54:00,77.2,63.6,29.84,SSW,197,0.0,1.0,63,0.00,,,0.00,VWS V14.01,2013-09-20 23:54:00,
2013-09-20 19:59:00,77.0,63.5,29.84,SSW,197,0.0,1.0,63,0.00,,,0.00,VWS V14.01,2013-09-20 23:59:00,
2013-09-20 20:04:00,77.0,63.5,29.84,SSW,197,0.0,1.0,63,0.00,,,0.00,VWS V14.01,2013-09-21 00:04:00,
2013-09-20 20:09:00,76.8,62.8,29.84,SSW,197,0.0,1.0,62,0.00,,,0.00,VWS V14.01,2013-09-21 00:09:00,
2013-09-20 20:14:00,76.8,63.3,29.84,SSW,197,0.0,1.0,63,0.00,,,0.00,VWS V14.01,2013-09-21 00:14:00,
2013-09-20 20:19:00,76.7,63.2,29.84,SSW,197,0.0,1.0,63,0.00,,,0.00,VWS V14.01,2013-09-21 00:19:00,
2013-09-20 20:24:00,76.5,63.4,29.84,SSW,197,0.0,1.0,64,0.00,,,0.00,VWS V14.01,2013-09-21 00:24:00,
2013-09-20 20:29:00,76.3,63.2,29.84,SSW,197,0.0,1.0,64,0.00,,,0.00,VWS V14.01,2013-09-21 00:29:00,
2013-09-20 20:34:00,76.1,63.0,29.83,SSW,197,0.0,1.0,64,0.00,,,0.00,VWS V14.01,2013-09-21 00:34:00,
2013-09-20 20:39:00,76.0,63.4,29.83,SSW,197,0.0,1.0,65,0.00,,,0.00,VWS V14.01,2013-09-21 00:39:00,
2013-09-20 20:44:00,76.0,63.8,29.83,SSW,197,0.0,1.0,66,0.00,,,0.00,VWS V14.01,2013-09-21 00:44:00,
2013-09-20 20:50:00,75.6,63.5,29.83,SSW,197,0.0,1.0,66,0.00,,,0.00,VWS V14.01,2013-09-21 00:50:00,
2013-09-20 20:55:00,75.4,63.7,29.83,SSW,197,0.0,1.0,67,0.00,,,0.00,VWS V14.01,2013-09-21 00:55:00,
2013-09-20 21:00:00,75.4,64.1,29.83,SSW,197,0.0,1.0,68,0.00,,,0.00,VWS V14.01,2013-09-21 01:00:00,
2013-09-20 21:05:00,75.3,64.0,29.83,SSW,197,0.0,1.0,68,0.00,,,0.00,VWS V14.01,2013-09-21 01:05:00,
2013-09-20 21:10:00,75.1,64.2,29.83,SSW,197,0.0,1.0,69,0.00,,,0.00,VWS V14.01,2013-09-21 01:10:00,
2013-09-20 21:15:00,74.9,64.5,29.83,SSW,197,0.0,1.0,70,0.00,,,0.00,VWS V14.01,2013-09-21 01:15:00,
2013-09-20 21:20:00,74.7,64.7,29.83,SSW,197,0.0,1.0,71,0.00,,,0.00,VWS V14.01,2013-09-21 01:20:00,
2013-09-20 21:25:00,74.6,64.6,29.83,SSW,197,0.0,1.0,71,0.00,,,0.00,VWS V14.01,2013-09-21 01:25:00,
2013-09-20 21:30:00,74.4,64.4,29.83,SSW,197,0.0,1.0,71,0.00,,,0.00,VWS V14.01,2013-09-21 01:30:00,
2013-09-20 21:35:00,74.4,64.4,29.83,SSW,197,0.0,1.0,71,0.00,,,0.00,VWS V14.01,2013-09-21 01:35:00,
2013-09-20 21:40:00,74.2,64.6,29.83,SSW,197,0.0,1.0,72,0.00,,,0.00,VWS V14.01,2013-09-21 01:40:00,
2013-09-20 21:45:00,74.2,64.6,29.83,SSW,197,0.0,1.0,72,0.00,,,0.00,VWS V14.01,2013-09-21 01:45:00,
2013-09-20 21:50:00,74.2,64.6,29.82,SSW,197,0.0,1.0,72,0.00,,,0.00,VWS V14.01,2013-09-21 01:50:00,
2013-09-20 21:55:00,74.0,64.4,29.82,SSW,197,0.0,1.0,72,0.00,,,0.00,VWS V14.01,2013-09-21 01:55:00,
2013-09-20 22:05:00,74.0,64.4,29.82,SSW,196,0.0,1.0,72,0.00,,,0.00,VWS V14.01,2013-09-21 02:05:00,
2013-09-20 22:10:00,73.9,64.7,29.82,SSW,196,0.0,1.0,73,0.00,,,0.00,VWS V14.01,2013-09-21 02:10:00,
2013-09-20 22:15:00,73.9,64.7,29.82,SSW,196,0.0,1.0,73,0.00,,,0.00,VWS V14.01,2013-09-21 02:15:00,
2013-09-20 22:20:00,73.9,64.7,29.82,SSW,196,0.0,1.0,73,0.00,,,0.00,VWS V14.01,2013-09-21 02:20:00,
2013-09-20 22:25:00,73.9,64.7,29.82,South,191,0.0,1.0,73,0.00,,,0.00,VWS V14.01,2013-09-21 02:25:00,
2013-09-20 22:30:00,73.9,65.1,29.82,South,191,0.0,1.0,74,0.00,,,0.00,VWS V14.01,2013-09-21 02:30:00,
2013-09-20 22:35:00,73.7,65.3,29.82,South,191,0.0,1.0,75,0.00,,,0.00,VWS V14.01,2013-09-21 02:35:00,
2013-09-20 22:40:00,73.5,65.1,29.82,South,191,0.0,1.0,75,0.00,,,0.00,VWS V14.01,2013-09-21 02:40:00,
2013-09-20 22:45:00,73.3,65.3,29.82,South,191,0.0,1.0,76,0.00,,,0.00,VWS V14.01,2013-09-21 02:45:00,
2013-09-20 22:50:00,73.3,65.3,29.82,South,191,0.0,1.0,76,0.00,,,0.00,VWS V14.01,2013-09-21 02:50:00,
2013-09-20 22:55:00,73.2,65.6,29.82,South,191,0.0,1.0,77,0.00,,,0.00,VWS V14.01,2013-09-21 02:55:00,
2013-09-20 23:00:00,73.2,65.6,29.82,South,191,0.0,1.0,77,0.00,,,0.00,VWS V14.01,2013-09-21 03:00:00,
2013-09-20 23:01:00,72.0,65.9,29.82,South,191,0.0,1.0,81,0.00,,,0.00,VWS V14.01,2013-09-21 03:01:00,
2013-09-20 23:05:00,73.2,65.2,29.82,South,191,0.0,1.0,76,0.00,,,0.00,VWS V14.01,2013-09-21 03:05:00,
2013-09-20 23:06:00,71.8,66.0,29.82,South,191,0.0,1.0,82,0.00,,,0.00,VWS V14.01,2013-09-21 03:06:00,
2013-09-20 23:10:00,73.2,65.2,29.82,South,191,0.0,1.0,76,0.00,,,0.00,VWS V14.01,2013-09-21 03:10:00,
2013-09-20 23:11:00,71.5,65.7,29.82,South,191,0.0,1.0,82,0.00,,,0.00,VWS V14.01,2013-09-21 03:11:00,
2013-09-20 23:15:00,73.2,65.2,29.82,South,191,0.0,1.0,76,0.00,,,0.00,VWS V14.01,2013-09-21 03:15:00,
2013-09-20 23:16:00,71.3,65.9,29.82,South,191,0.0,1.0,83,0.00,,,0.00,VWS V14.01,2013-09-21 03:16:00,
2013-09-20 23:20:00,73.3,64.9,29.82,South,191,1.0,1.0,75,0.00,,,0.00,VWS V14.01,2013-09-21 03:20:00,
2013-09-20 23:25:00,73.3,64.9,29.82,South,191,0.0,1.0,75,0.00,,,0.00,VWS V14.01,2013-09-21 03:25:00,
2013-09-20 23:26:00,70.9,65.8,29.82,South,191,0.0,1.0,84,0.00,,,0.00,VWS V14.01,2013-09-21 03:26:00,
2013-09-20 23:30:00,73.3,65.3,29.82,South,191,0.0,1.0,76,0.00,,,0.00,VWS V14.01,2013-09-21 03:30:00,
2013-09-20 23:31:00,70.8,66.1,29.81,South,191,0.0,1.0,85,0.00,,,0.00,VWS V14.01,2013-09-21 03:31:00,
2013-09-20 23:35:00,73.2,65.6,29.82,South,191,0.0,1.0,77,0.00,,,0.00,VWS V14.01,2013-09-21 03:35:00,
2013-09-20 23:36:00,70.6,66.2,29.81,South,191,0.0,1.0,86,0.00,,,0.00,VWS V14.01,2013-09-21 03:36:00,
2013-09-20 23:40:00,72.8,65.2,29.82,South,191,0.0,1.0,77,0.00,,,0.00,VWS V14.01,2013-09-21 03:40:00,
2013-09-20 23:41:00,70.4,66.0,29.81,South,191,0.0,1.0,86,0.01,,,0.01,VWS V14.01,2013-09-21 03:41:00,
2013-09-20 23:45:00,72.7,65.4,29.82,South,191,0.0,1.0,78,0.00,,,0.00,VWS V14.01,2013-09-21 03:45:00,
2013-09-20 23:46:00,70.3,66.2,29.81,South,191,0.0,1.0,87,0.01,,,0.01,VWS V14.01,2013-09-21 03:46:00,
2013-09-20 23:50:00,72.5,65.6,29.81,South,191,0.0,1.0,79,0.00,,,0.00,VWS V14.01,2013-09-21 03:50:00,
2013-09-20 23:51:00,70.1,66.4,29.81,South,191,0.0,1.0,88,0.01,,,0.01,VWS V14.01,2013-09-21 03:51:00,
2013-09-20 23:55:00,72.3,65.8,29.81,South,191,0.0,1.0,80,0.00,,,0.00,VWS V14.01,2013-09-21 03:55:00,
2013-09-20 23:56:00,69.9,66.2,29.81,South,191,0.0,1.0,88,0.01,,,0.01,VWS V14.01,2013-09-21 03:56:00,